Ride Results

Dergholm (31-10-2015)
Ride distance: 100.0 km Elevator

Outcomes - Dergholm (31-10-2015)
Division No. of Entries Retired / DNE Completed Withdrawn Ineligible V/O Percentage Completed
HW 6 3 2 - - 1 83.33%
MW 11 3 6 - 1 1 81.82%
LW 8 4 2 1 - 1 75.00%
JN 2 - 2 - - - 100.00%
Totals 27 10 12 1 1 3 81.48%
Results - Dergholm (31-10-2015)
No. Rider Horse Place Time Leg Speeds Total
Km/Hr
H/R bpm
Heavyweight
66 Digger Leehane Tarara Malone 1 (BC) 7:12:20 16.7, 12.4, 12.3 13.88 30, 42, 47, 48 (Avg:45)
150 Jody Smith Tarjo Ace of Hearts 2 7:58:00 13.4, 11.6, 12.7 12.55 37, 46, 50, 48 (Avg:48)
311 Tarrant Smith Tarjo Intrigue Retired/DNE L2 6:24:00 13.4, 11.6 12.50 42, 47, 60 (Avg:53)
65 Carl Adamson Cooroora Bold Dancer Retired/DNE L2 6:25:00 13.2, 11.7 12.47 48, 48, 59 (Avg:53)
268 Lainie Ray Diamond R Turbo Retired/DNE L2 7:44:00 11.1, 9.6 10.34 37, 45, 48 (Avg:46)
119 Vanessa Smith Carnival Imperial Count Lame L2 0:00:00 12.6, 10.7 - 47, 46, 50 (Avg:48)
Middleweight
351 Steve Blackhurst Rafeeq 1 (BC) 6:28:00 16.7, 15.0, 14.0 15.46 36, 44, 46, 42 (Avg:44)
42 Hans Peuker Marybank Celia 2 7:12:26 16.9, 12.6, 11.8 13.87 44, 40, 47, 44 (Avg:43)
291 Kerryn Agnew Performance Park Menphis Rain 3 7:15:00 13.4, 14.6, 12.9 13.79 42, 38, 49, 39 (Avg:42)
8 Janet Watts Mister Edz Allira 4 7:29:00 13.8, 13.2, 12.6 13.36 37, 47, 49, 50 (Avg:48)
70 Jil Bourton Veloce Divine 5 7:29:45 13.8, 13.2, 12.5 13.34 42, 46, 48, 47 (Avg:47)
273 Georgie Hart Dejarn Khan 6 7:30:00 13.1, 12.9, 14.4 13.33 37, 44, 51, 52 (Avg:49)
257 Tanya Beacham Musical Gully Zanadu Retired/DNE L2 7:36:00 11.8, 9.4 10.53 32, 40, 46 (Avg:43)
181 Sharee Court Miss Ziggy Retired/DNE L2 7:57:00 11.1, 9.1 10.06 42, 43, 46 (Avg:44)
6 Julie Woods Pyrenees Kaleb Retired/DNE L2 8:48:00 11.4, 7.5 9.09 45, 48, 47 (Avg:47)
131 Simon Thomas Rocky Point Ivory Ammonite Lame L2 0:00:00 11.0, 9.2 - 54, 47, 52 (Avg:49)
9661 Janet Watts Mister Edz Allira Not started L2 0:00:00 11.0, 9.6 - 39, 48, 56 (Avg:52)
Lightweight
278 Gina Thompson Dualling 1 (BC) 6:28:00 16.9, 14.9, 13.9 15.46 42, 49, 44, 46 (Avg:46)
114 Helen Spencer Imoan Party Girl 2 9:24:00 11.8, 9.5, 11.0 10.64 34, 37, 51, 43 (Avg:43)
740 Joanne Masterson Karameawoods Amber Retired/DNE L2 6:07:00 13.1, 13.0 13.08 30, 40, 48 (Avg:44)
168 Jessica Aistrope Aqaba Signette Retired/DNE L2 6:46:00 12.0, 11.5 11.82 42, 48, 52 (Avg:50)
86 Rose Ross Aloha Fabius Retired/DNE L2 6:46:00 12.0, 11.5 11.82 33, 49, 42 (Avg:45)
61 Lois Sharam Al Bahir Retired/DNE L2 7:36:00 11.8, 9.4 10.53 33, 44, 50 (Avg:47)
91 Kim Noble Mizzi Couger Lame L1 0:00:00 12.7 - 39, 43 (Avg:43)
151 Kasey Thomas Rocky Point Pale Lazulite Withdrawn P/R 0:00:00 - - -
Junior
262 Bonnie Player Quartz Hill Farm Eragon 1 (BC) 7:12:22 16.7, 12.4, 12.3 13.88 46, 52, 57, 57 (Avg:55)
292 Alison Noble Warrawee Naaziq 2 7:31:00 12.7, 14.2, 12.6 13.30 44, 50, 57, 55 (Avg:54)